• Join FlightAware (Why Join?)
  • Login
  • US Flag 
09:05PM EDT


 

Airport Tracker/Info


-or-


 

Live Flight TrackerFlight Track Log ✈ N770PJ ✈ 05-May-2013 ✈ KSAT - MMAN / NTR

Flight Track Log - Related Links

Times and Time Zones

All times are in EDT time to prevent confusion due to time zone crossing. See the N770PJ flight status page for this flight to view local times or setup timezone preferences in your user account.

Time Position Orientation Groundspeed Altitude Reporting Facility
EDT Latitude Longitude Course Direction KTS MPH feet Rate Location/Type
07:36PM 29.5531 -98.4964 293° West 168 193 2,200  Level Houston Center
07:37PM 29.5694 -98.5400 293° West 197 227 5,400 3,300 Climbing Houston Center
07:38PM 29.5036 -98.5767 206° Southwest 275 316 8,600 2,700 Climbing Houston Center
07:39PM 29.4875 -98.5775 183° South 264 304 9,100 2,040 Climbing Houston Center
07:40PM 29.4036 -98.5986 192° South 306 352 11,300 2,700 Climbing Houston Center
07:41PM 29.3125 -98.6447 204° Southwest 324 373 14,800 3,360 Climbing Houston Center
07:42PM 29.2447 -98.6944 213° Southwest 285 328 18,200 2,700 Climbing Houston Center
07:43PM 29.1653 -98.7494 211° Southwest 305 351 20,400 2,280 Climbing Houston Center
07:44PM 29.0828 -98.7892 203° Southwest 321 369 23,000 2,220 Climbing Houston Center
07:45PM 29.0014 -98.8275 202° Southwest 315 362 25,100 1,560 Climbing Houston Center
07:46PM 28.9081 -98.8744 204° Southwest 341 392 26,300 1,200 Climbing Houston Center
07:47PM 28.8142 -98.9189 203° Southwest 364 419 27,600 780 Climbing Houston Center
07:48PM 28.7169 -98.9675 204° Southwest 383 441 27,900 240 Climbing Houston Center
07:49PM 28.6064 -99.0181 202° Southwest 418 481 28,100 60 Climbing Houston Center
07:50PM 28.4964 -99.0703 203° Southwest 427 491 28,100  Level Houston Center
07:51PM 28.3853 -99.1242 203° Southwest 434 499 28,100 -60 Level Houston Center
07:52PM 28.2725 -99.1772 203° Southwest 439 505 28,000 -60 Descending Houston Center
07:53PM 28.1381 -99.2397 202° Southwest 437 503 28,000  Level Houston Center
07:54PM 28.0261 -99.2933 203° Southwest 438 504 28,000  Level Houston Center
07:55PM 27.9133 -99.3464 203° Southwest 441 507 28,000  Level Houston Center
07:56PM 27.8000 -99.3997 203° Southwest 442 509 28,000  Level Houston Center
07:57PM 27.6872 -99.4536 203° Southwest 444 511 28,000  Level Houston Center
07:58PM 27.5739 -99.5064 202° Southwest 444 511 28,000  Level Houston Center
08:00PM 27.4634 -99.5480 200° South  Level FlightAware Approximate
08:07PM 26.8522 -99.7394 197° South  Level FlightAware Approximate
08:08PM 26.7656 -99.7692 197° South  Level FlightAware Approximate
08:09PM 26.6789 -99.7989 197° South  Level FlightAware Approximate
08:10PM 26.5922 -99.8286 197° South  Level FlightAware Approximate
08:11PM 26.5055 -99.8583 197° South  Level FlightAware Approximate
08:12PM 26.4188 -99.8879 197° South  Level FlightAware Approximate
08:13PM 26.3316 -99.9155 195° South  Level FlightAware Approximate
08:14PM 26.2441 -99.9418 195° South  Level FlightAware Approximate
08:15PM 26.1570 -99.9699 197° South  Level FlightAware Approximate
08:16PM 26.0701 -99.9989 197° South  Level FlightAware Approximate
08:17PM 25.9830 -100.0268 195° South  Level FlightAware Approximate
08:18PM 25.8955 -100.0530 195° South  Level FlightAware Approximate
08:19PM 25.8090 -100.0831 200° South  Level FlightAware Approximate
08:20PM 25.7971 -100.1374 307° West  Level FlightAware Approximate
08:21PM 25.8488 -100.2202 304° West  Level FlightAware Approximate
08:22PM 25.8656 -100.2372 304° West  Level Estimated
08:23PM 25.8656 -100.2372 304° West  Level Estimated
08:24PM 25.8656 -100.2372 304° West  Level Estimated
08:25PM 25.8656 -100.2372 304° West  Level Estimated
08:26PM 25.8656 -100.2372 304° West  Level Estimated
08:27PM 25.8656 -100.2372 304° West  Level Estimated
08:28PM 25.8656 -100.2372 304° West  Level Estimated
08:29PM 25.8656 -100.2372 304° West  Level Estimated
08:30PM 25.8656 -100.2372 304° West  Level Estimated
08:31PM 25.8656 -100.2372 304° West  Level Estimated
08:32PM 25.8656 -100.2372 304° West  Level Estimated
08:33PM 25.8656 -100.2372 304° West  Level Estimated
08:34PM 25.8656 -100.2372 304° West  Level Estimated
08:35PM 25.8656 -100.2372 304° West  Level Estimated
08:36PM 25.8656 -100.2372 304° West  Level Estimated
08:37PM 25.8656 -100.2372 304° West  Level Estimated
08:38PM 25.8656 -100.2372 304° West  Level Estimated